METAR Data
IDs: Format: Raw Decoded Include TAF

Data at: 1250 UTC 24 Jan 2021

Region: TOP
KATL 241152Z 10008KT 10SM FEW090 FEW150 05/M02 A3023 RMK AO2 SLP238 T00501017 10094 20050 53006

KBOS 241154Z 29018G27KT 10SM FEW040 M08/M18 A2996 RMK AO2 PK WND 28030/1139 SLP143 T10781178 11078 21089 53007 $

KBWI 241154Z 28007KT 10SM FEW250 M05/M12 A3032 RMK AO2 SLP268 T10501117 11039 21056 53007

KCLE 241151Z 16006KT 10SM OVC100 M07/M11 A3029 RMK AO2 SLP286 T10671106 11067 21083 55008

KCLT 241152Z 05003KT 10SM SCT120 00/M12 A3032 RMK AO2 SLP271 T00001117 10033 20000 51009

KCVG 241152Z 11005KT 10SM OVC065 M02/M11 A3017 RMK AO2 SLP223 T10171111 11017 21028 55014

KDCA 241152Z 31007KT 10SM FEW140 SCT200 M03/M12 A3036 RMK AO2 SLP279 T10331117 11028 21033 53008

KDEN 241153Z 13007KT 10SM OVC014 M04/M08 A2989 RMK AO2 SLP131 T10441078 11044 21050 58007 $

KDFW 241237Z 12005KT 0SM R17C/2000V2200FT -DZ FG VV001 11/11 A2995 RMK AO2 SFC VIS 1/2 P0000 T01060106

KDTW 241153Z 00000KT 9SM OVC090 M04/M08 A3026 RMK AO2 SLP256 T10441083 11044 21067 58010

KEWR 241151Z 31022G30KT 10SM FEW040 M06/M16 A3021 RMK AO2 PK WND 29030/1148 SLP230 T10561161 11039 21056 53011

KFLL 241153Z 00000KT 9SM FEW002 FEW025 18/18 A3009 RMK AO2 SLP188 T01830183 10194 20183 53009

KIAD 241152Z 34004KT 10SM FEW110 FEW190 SCT250 M05/M12 A3034 RMK AO2 SLP277 T10501122 11039 21050 53008

KIAH 241153Z 10003KT 1/4SM FG VV002 17/16 A2996 RMK AO2 SFC VIS 1/2 SLP145 60000 70005 T01670161 10167 20167 55003

KJFK 241151Z 31019G31KT 10SM FEW040 FEW250 M05/M16 A3021 RMK AO2 PK WND 31032/1134 SLP228 T10501161 11044 21056 53009

KLAS 241156Z 27005KT 10SM FEW090 SCT150 SCT180 03/M03 A2981 RMK AO2 SLP097 T00331028 10072 20033 58005

KLAX 241153Z 05004KT 10SM FEW080 07/06 A2989 RMK AO2 SLP120 70018 T00720056 10094 20061 58005

KLGA 241151Z 30016G28KT 10SM FEW040 M04/M14 A3021 RMK AO2 PK WND 30031/1102 SLP229 T10391139 11028 21039 53017

KMCO 241153Z 35004KT 10SM SCT031 BKN100 BKN200 13/13 A3014 RMK AO2 SLP206 70007 T01330133 10156 20133 53013

KMDW 241241Z 14007KT 4SM -SN BR BKN021 BKN032 OVC038 M02/M05 A3009 RMK AO2 P0000 T10221050

KMEM 241242Z 00000KT 10SM BKN028 OVC037 08/04 A3007 RMK AO2 RAE24 P0001 T00830044 $

KMIA 241225Z 35003KT 1/4SM FG VV002 18/18 A3011 RMK AO2 T01830178 RVRNO $

KMSP 241241Z 26003KT 8SM BKN014 OVC023 M08/M09 A3006 RMK AO2 T10781089

KORD 241151Z 17011KT 3SM -SN SCT030 OVC038 M02/M06 A3010 RMK AO2 SLP201 P0001 60001 70001 T10221061 11011 21022 55013

KPDX 241153Z 11006KT 10SM OVC046 04/01 A2992 RMK AO2 SLP131 T00440006 10050 20044 58024

KPHL 241154Z 31012KT 10SM FEW050 SCT250 M04/M14 A3029 RMK AO2 SLP256 T10441144 11028 21050 53009

KPHX 241151Z 15004KT 10SM BKN060 BKN080 BKN100 11/05 A2979 RMK AO2 SLP079 70001 T01110050 10122 20111 58007 $

KPIT 241151Z 14003KT 10SM FEW150 SCT250 M11/M13 A3028 RMK AO2 SLP283 I1000 I6000 T11111133 11078 21111 58007 $

KSAN 241214Z 29003KT 4SM RA FEW006 BKN025 OVC040 09/07 A2990 RMK AO2 P0002 T00940067

KSEA 241153Z 14006KT 10SM OVC021 04/01 A2987 RMK AO2 SLP124 60001 70001 T00390011 10044 20033 58023

KSFO 241156Z 26008KT 10SM FEW005 BKN014 11/07 A2994 RMK AO2 SLP140 T01060067 10106 20078 58005 $

KSLC 241154Z 29004KT 7SM -SN FEW005 OVC017 M02/M03 A2986 RMK AO2 SLP123 4/002 P0000 60007 70035 T10221028 11011 21028 58008 $

KSTL 241151Z 14006KT 10SM OVC026 02/M03 A3005 RMK AO2 SLP182 60000 T00221028 10033 20022 55008 $

KTPA 241153Z 03004KT 10SM OVC006 16/14 A3015 RMK AO2 SLP209 T01610139 10183 20161 53013